Klemme, Iowa
Current Conditions -  °F | °C
As of 7:35 PM on Sunday 23 Nov 2014 (Local Time) from KFXY Reporting Station
Overcast Overcast  
Wind Chill: 27°   Ceiling: 2500
Heat Index: 37°   Visibility: 10mi
Dew Point: 36°   Wind: 18mph
Humidity: 93%   Direction: 320°NW
Pressure: 29.39"   Gusts: 29mph
Location:  43.01°N, 93.6°W
Report Text: KFXY 240135Z AUTO 32016G25KT 10SM BKN025 OVC042 03/02 A2939 RMK AO2
Loading
Personal Weather Stations






























Interactive Weather Map New forecast layout! Learn more

10-Day Weather Forecast

Advertisements
Track Severe Weather on mobile